Percy, Illinois
Current Conditions -  °F | °C
As of 1:55 PM on Tuesday 21 Oct 2014 (Local Time) from KSAR Reporting Station
Clear Clear  
Wind Chill: 67°   Ceiling: Unl
Heat Index: 67°   Visibility: 10mi
Dew Point: 45°   Wind: 9mph
Humidity: 46%   Direction: 340°NNW
Pressure: 30.11"   Gusts: NA
Location:  38.02°N, 89.62°W
Report Text: KSAR 211855Z AUTO 34008KT 10SM CLR 19/07 A3011 RMK AO2 T01920073
Loading
Personal Weather Stations






























Interactive Weather Map
Tropical Storm Tracking
New forecast layout! Learn more

10-Day Weather Forecast

Advertisements
Track Severe Weather on mobile